sensor_id;sensor_type;location;lat;lon;timestamp;temperature;humidity
21895;DHT22;11112;51.270;7.224;2023-05-07T00:02:21;17.00;99.90
21895;DHT22;11112;51.270;7.224;2023-05-07T00:04:49;17.00;99.90
21895;DHT22;11112;51.270;7.224;2023-05-07T00:07:21;17.00;99.90
21895;DHT22;11112;51.270;7.224;2023-05-07T00:09:48;17.00;99.90
21895;DHT22;11112;51.270;7.224;2023-05-07T00:12:15;16.90;99.90
21895;DHT22;11112;51.270;7.224;2023-05-07T00:14:43;16.90;99.90
21895;DHT22;11112;51.270;7.224;2023-05-07T00:17:12;16.90;99.90
21895;DHT22;11112;51.270;7.224;2023-05-07T00:19:40;16.90;99.90
21895;DHT22;11112;51.270;7.224;2023-05-07T00:22:07;16.90;99.90
21895;DHT22;11112;51.270;7.224;2023-05-07T00:24:36;16.90;99.90
21895;DHT22;11112;51.270;7.224;2023-05-07T00:27:03;16.90;99.90
21895;DHT22;11112;51.270;7.224;2023-05-07T00:29:30;16.90;99.90
21895;DHT22;11112;51.270;7.224;2023-05-07T00:31:58;16.90;99.90
21895;DHT22;11112;51.270;7.224;2023-05-07T00:34:27;16.90;99.90
21895;DHT22;11112;51.270;7.224;2023-05-07T00:36:55;17.00;99.90
21895;DHT22;11112;51.270;7.224;2023-05-07T00:39:23;16.90;99.90
21895;DHT22;11112;51.270;7.224;2023-05-07T00:41:51;16.90;99.90
21895;DHT22;11112;51.270;7.224;2023-05-07T00:44:18;16.90;99.90
21895;DHT22;11112;51.270;7.224;2023-05-07T00:46:46;16.90;99.90
21895;DHT22;11112;51.270;7.224;2023-05-07T00:49:15;16.90;99.90
21895;DHT22;11112;51.270;7.224;2023-05-07T00:51:45;16.90;99.90
21895;DHT22;11112;51.270;7.224;2023-05-07T00:54:13;16.80;99.90
21895;DHT22;11112;51.270;7.224;2023-05-07T00:56:41;16.90;99.90
21895;DHT22;11112;51.270;7.224;2023-05-07T00:59:09;16.80;99.90
21895;DHT22;11112;51.270;7.224;2023-05-07T01:01:38;16.80;99.90
21895;DHT22;11112;51.270;7.224;2023-05-07T01:04:06;16.80;99.90
21895;DHT22;11112;51.270;7.224;2023-05-07T01:06:33;16.90;99.90
21895;DHT22;11112;51.270;7.224;2023-05-07T01:09:02;16.90;99.90
21895;DHT22;11112;51.270;7.224;2023-05-07T01:11:30;16.80;99.90
21895;DHT22;11112;51.270;7.224;2023-05-07T01:13:59;16.80;99.90
21895;DHT22;11112;51.270;7.224;2023-05-07T01:16:27;16.80;99.90
21895;DHT22;11112;51.270;7.224;2023-05-07T01:18:54;16.80;99.90
21895;DHT22;11112;51.270;7.224;2023-05-07T01:21:25;16.80;99.90
21895;DHT22;11112;51.270;7.224;2023-05-07T01:23:57;16.80;99.90
21895;DHT22;11112;51.270;7.224;2023-05-07T01:26:24;16.80;99.90
21895;DHT22;11112;51.270;7.224;2023-05-07T01:28:52;16.80;99.90
21895;DHT22;11112;51.270;7.224;2023-05-07T01:31:20;16.80;99.90
21895;DHT22;11112;51.270;7.224;2023-05-07T01:33:48;16.70;99.90
21895;DHT22;11112;51.270;7.224;2023-05-07T01:36:18;16.70;99.90
21895;DHT22;11112;51.270;7.224;2023-05-07T01:38:48;16.70;99.90
21895;DHT22;11112;51.270;7.224;2023-05-07T01:41:17;16.70;99.90
21895;DHT22;11112;51.270;7.224;2023-05-07T01:43:46;16.70;99.90
21895;DHT22;11112;51.270;7.224;2023-05-07T01:46:15;16.70;99.90
21895;DHT22;11112;51.270;7.224;2023-05-07T01:48:43;16.70;99.90
21895;DHT22;11112;51.270;7.224;2023-05-07T01:51:12;16.80;99.90
21895;DHT22;11112;51.270;7.224;2023-05-07T01:53:41;16.80;99.90
21895;DHT22;11112;51.270;7.224;2023-05-07T01:56:09;16.80;99.90
21895;DHT22;11112;51.270;7.224;2023-05-07T01:58:39;16.80;99.90
21895;DHT22;11112;51.270;7.224;2023-05-07T02:01:07;16.70;99.90
21895;DHT22;11112;51.270;7.224;2023-05-07T02:03:35;16.70;99.90
21895;DHT22;11112;51.270;7.224;2023-05-07T02:06:03;16.70;99.90
21895;DHT22;11112;51.270;7.224;2023-05-07T02:08:32;16.80;99.90
21895;DHT22;11112;51.270;7.224;2023-05-07T02:10:59;16.80;99.90
21895;DHT22;11112;51.270;7.224;2023-05-07T02:13:31;16.80;99.90
21895;DHT22;11112;51.270;7.224;2023-05-07T02:16:05;16.80;99.90
21895;DHT22;11112;51.270;7.224;2023-05-07T02:18:33;16.70;99.90
21895;DHT22;11112;51.270;7.224;2023-05-07T02:21:01;16.70;99.90
21895;DHT22;11112;51.270;7.224;2023-05-07T02:23:28;16.70;99.90
21895;DHT22;11112;51.270;7.224;2023-05-07T02:25:56;16.70;99.90
21895;DHT22;11112;51.270;7.224;2023-05-07T02:28:24;16.70;99.90
21895;DHT22;11112;51.270;7.224;2023-05-07T02:30:54;16.70;99.90
21895;DHT22;11112;51.270;7.224;2023-05-07T02:33:25;16.70;99.90
21895;DHT22;11112;51.270;7.224;2023-05-07T02:35:53;16.70;99.90
21895;DHT22;11112;51.270;7.224;2023-05-07T02:38:22;16.60;99.90
21895;DHT22;11112;51.270;7.224;2023-05-07T02:40:50;16.60;99.90
21895;DHT22;11112;51.270;7.224;2023-05-07T02:43:17;16.60;99.90
21895;DHT22;11112;51.270;7.224;2023-05-07T02:45:44;16.60;99.90
21895;DHT22;11112;51.270;7.224;2023-05-07T02:48:12;16.60;99.90
21895;DHT22;11112;51.270;7.224;2023-05-07T02:50:41;16.60;99.90
21895;DHT22;11112;51.270;7.224;2023-05-07T02:53:09;16.60;99.90
21895;DHT22;11112;51.270;7.224;2023-05-07T02:55:36;16.60;99.90
21895;DHT22;11112;51.270;7.224;2023-05-07T02:58:03;16.60;99.90
21895;DHT22;11112;51.270;7.224;2023-05-07T03:00:31;16.60;99.90
21895;DHT22;11112;51.270;7.224;2023-05-07T03:02:58;16.50;99.90
21895;DHT22;11112;51.270;7.224;2023-05-07T03:05:26;16.50;99.90
21895;DHT22;11112;51.270;7.224;2023-05-07T03:07:57;16.50;99.90
21895;DHT22;11112;51.270;7.224;2023-05-07T03:10:24;16.50;99.90
21895;DHT22;11112;51.270;7.224;2023-05-07T03:12:51;16.50;99.90
21895;DHT22;11112;51.270;7.224;2023-05-07T03:15:19;16.60;99.90
21895;DHT22;11112;51.270;7.224;2023-05-07T03:17:47;16.60;99.90
21895;DHT22;11112;51.270;7.224;2023-05-07T03:20:17;16.60;99.90
21895;DHT22;11112;51.270;7.224;2023-05-07T03:22:47;16.60;99.90
21895;DHT22;11112;51.270;7.224;2023-05-07T03:25:18;16.60;99.90
21895;DHT22;11112;51.270;7.224;2023-05-07T03:27:45;16.60;99.90
21895;DHT22;11112;51.270;7.224;2023-05-07T03:30:15;16.60;99.90
21895;DHT22;11112;51.270;7.224;2023-05-07T03:32:43;16.60;99.90
21895;DHT22;11112;51.270;7.224;2023-05-07T03:35:12;16.60;99.90
21895;DHT22;11112;51.270;7.224;2023-05-07T03:37:40;16.60;99.90
21895;DHT22;11112;51.270;7.224;2023-05-07T03:40:08;16.60;99.90
21895;DHT22;11112;51.270;7.224;2023-05-07T03:42:38;16.50;99.90
21895;DHT22;11112;51.270;7.224;2023-05-07T03:45:07;16.50;99.90
21895;DHT22;11112;51.270;7.224;2023-05-07T03:47:35;16.50;99.90
21895;DHT22;11112;51.270;7.224;2023-05-07T03:50:03;16.50;99.90
21895;DHT22;11112;51.270;7.224;2023-05-07T03:52:31;16.50;99.90
21895;DHT22;11112;51.270;7.224;2023-05-07T03:54:58;16.50;99.90
21895;DHT22;11112;51.270;7.224;2023-05-07T03:57:26;16.50;99.90
21895;DHT22;11112;51.270;7.224;2023-05-07T03:59:55;16.50;99.90
21895;DHT22;11112;51.270;7.224;2023-05-07T04:02:25;16.50;99.90
21895;DHT22;11112;51.270;7.224;2023-05-07T04:04:52;16.40;99.90
21895;DHT22;11112;51.270;7.224;2023-05-07T04:07:20;16.30;99.90
21895;DHT22;11112;51.270;7.224;2023-05-07T04:09:49;16.30;99.90
21895;DHT22;11112;51.270;7.224;2023-05-07T04:12:17;16.30;99.90
21895;DHT22;11112;51.270;7.224;2023-05-07T04:14:45;16.40;99.90
21895;DHT22;11112;51.270;7.224;2023-05-07T04:17:15;16.30;99.90
21895;DHT22;11112;51.270;7.224;2023-05-07T04:19:42;16.40;99.90
21895;DHT22;11112;51.270;7.224;2023-05-07T04:22:11;16.30;99.90
21895;DHT22;11112;51.270;7.224;2023-05-07T04:24:41;16.30;99.90
21895;DHT22;11112;51.270;7.224;2023-05-07T04:27:10;16.30;99.90
21895;DHT22;11112;51.270;7.224;2023-05-07T04:29:37;16.40;99.90
21895;DHT22;11112;51.270;7.224;2023-05-07T04:32:08;16.40;99.90
21895;DHT22;11112;51.270;7.224;2023-05-07T04:34:37;16.40;99.90
21895;DHT22;11112;51.270;7.224;2023-05-07T04:37:04;16.40;99.90
21895;DHT22;11112;51.270;7.224;2023-05-07T04:39:32;16.40;99.90
21895;DHT22;11112;51.270;7.224;2023-05-07T04:42:00;16.30;99.90
21895;DHT22;11112;51.270;7.224;2023-05-07T04:44:28;16.30;99.90
21895;DHT22;11112;51.270;7.224;2023-05-07T04:46:57;16.30;99.90
21895;DHT22;11112;51.270;7.224;2023-05-07T04:49:25;16.30;99.90
21895;DHT22;11112;51.270;7.224;2023-05-07T04:51:54;16.30;99.90
21895;DHT22;11112;51.270;7.224;2023-05-07T04:54:23;16.30;99.90
21895;DHT22;11112;51.270;7.224;2023-05-07T04:56:52;16.30;99.90
21895;DHT22;11112;51.270;7.224;2023-05-07T04:59:19;16.30;99.90
21895;DHT22;11112;51.270;7.224;2023-05-07T05:01:46;16.30;99.90
21895;DHT22;11112;51.270;7.224;2023-05-07T05:04:14;16.30;99.90
21895;DHT22;11112;51.270;7.224;2023-05-07T05:06:43;16.30;99.90
21895;DHT22;11112;51.270;7.224;2023-05-07T05:09:12;16.30;99.90
21895;DHT22;11112;51.270;7.224;2023-05-07T05:11:41;16.30;99.90
21895;DHT22;11112;51.270;7.224;2023-05-07T05:14:08;16.30;99.90
21895;DHT22;11112;51.270;7.224;2023-05-07T05:16:36;16.40;99.90
21895;DHT22;11112;51.270;7.224;2023-05-07T05:19:05;16.30;99.90
21895;DHT22;11112;51.270;7.224;2023-05-07T05:21:32;16.40;99.90
21895;DHT22;11112;51.270;7.224;2023-05-07T05:23:59;16.40;99.90
21895;DHT22;11112;51.270;7.224;2023-05-07T05:26:29;16.40;99.90
21895;DHT22;11112;51.270;7.224;2023-05-07T05:28:56;16.40;99.90
21895;DHT22;11112;51.270;7.224;2023-05-07T05:31:23;16.40;99.90
21895;DHT22;11112;51.270;7.224;2023-05-07T05:33:51;16.40;99.90
21895;DHT22;11112;51.270;7.224;2023-05-07T05:36:18;16.40;99.90
21895;DHT22;11112;51.270;7.224;2023-05-07T05:38:47;16.40;99.90
21895;DHT22;11112;51.270;7.224;2023-05-07T05:41:14;16.50;99.90
21895;DHT22;11112;51.270;7.224;2023-05-07T05:43:42;16.50;99.90
21895;DHT22;11112;51.270;7.224;2023-05-07T05:46:10;16.50;99.90
21895;DHT22;11112;51.270;7.224;2023-05-07T05:48:37;16.50;99.90
21895;DHT22;11112;51.270;7.224;2023-05-07T05:51:05;16.60;99.90
21895;DHT22;11112;51.270;7.224;2023-05-07T05:53:32;16.60;99.90
21895;DHT22;11112;51.270;7.224;2023-05-07T05:56:04;16.60;99.90
21895;DHT22;11112;51.270;7.224;2023-05-07T05:58:33;16.60;99.90
21895;DHT22;11112;51.270;7.224;2023-05-07T06:01:02;16.70;99.90
21895;DHT22;11112;51.270;7.224;2023-05-07T06:03:30;16.70;99.90
21895;DHT22;11112;51.270;7.224;2023-05-07T06:05:59;16.70;99.90
21895;DHT22;11112;51.270;7.224;2023-05-07T06:08:29;16.70;99.90
21895;DHT22;11112;51.270;7.224;2023-05-07T06:10:57;16.70;99.90
21895;DHT22;11112;51.270;7.224;2023-05-07T06:13:25;16.70;99.90
21895;DHT22;11112;51.270;7.224;2023-05-07T06:15:52;16.80;99.90
21895;DHT22;11112;51.270;7.224;2023-05-07T06:18:21;16.80;99.90
21895;DHT22;11112;51.270;7.224;2023-05-07T06:20:49;16.80;99.90
21895;DHT22;11112;51.270;7.224;2023-05-07T06:23:16;16.80;99.90
21895;DHT22;11112;51.270;7.224;2023-05-07T06:25:48;16.90;99.90
21895;DHT22;11112;51.270;7.224;2023-05-07T06:28:16;16.90;99.90
21895;DHT22;11112;51.270;7.224;2023-05-07T06:30:45;16.90;99.90
21895;DHT22;11112;51.270;7.224;2023-05-07T06:33:13;16.90;99.90
21895;DHT22;11112;51.270;7.224;2023-05-07T06:35:42;16.90;99.90
21895;DHT22;11112;51.270;7.224;2023-05-07T06:38:09;16.90;99.90
21895;DHT22;11112;51.270;7.224;2023-05-07T06:40:37;17.00;99.90
21895;DHT22;11112;51.270;7.224;2023-05-07T06:43:05;17.00;99.90
21895;DHT22;11112;51.270;7.224;2023-05-07T06:45:32;17.00;99.90
21895;DHT22;11112;51.270;7.224;2023-05-07T06:47:59;17.10;99.90
21895;DHT22;11112;51.270;7.224;2023-05-07T06:50:26;17.10;99.90
21895;DHT22;11112;51.270;7.224;2023-05-07T06:52:55;17.10;99.90
21895;DHT22;11112;51.270;7.224;2023-05-07T06:55:23;17.10;99.90
21895;DHT22;11112;51.270;7.224;2023-05-07T06:57:51;17.10;99.90
21895;DHT22;11112;51.270;7.224;2023-05-07T07:00:19;17.10;99.90
21895;DHT22;11112;51.270;7.224;2023-05-07T07:02:48;17.10;99.90
21895;DHT22;11112;51.270;7.224;2023-05-07T07:05:15;17.10;99.90
21895;DHT22;11112;51.270;7.224;2023-05-07T07:07:43;17.20;99.90
21895;DHT22;11112;51.270;7.224;2023-05-07T07:10:19;17.30;99.90
21895;DHT22;11112;51.270;7.224;2023-05-07T07:12:47;17.40;99.90
21895;DHT22;11112;51.270;7.224;2023-05-07T07:15:14;17.40;99.90
21895;DHT22;11112;51.270;7.224;2023-05-07T07:17:42;17.40;99.90
21895;DHT22;11112;51.270;7.224;2023-05-07T07:20:11;17.40;99.90
21895;DHT22;11112;51.270;7.224;2023-05-07T07:22:43;17.50;99.90
21895;DHT22;11112;51.270;7.224;2023-05-07T07:25:11;17.50;99.90
21895;DHT22;11112;51.270;7.224;2023-05-07T07:27:43;17.50;99.90
21895;DHT22;11112;51.270;7.224;2023-05-07T07:30:11;17.60;99.90
21895;DHT22;11112;51.270;7.224;2023-05-07T07:32:41;17.60;99.90
21895;DHT22;11112;51.270;7.224;2023-05-07T07:35:09;17.60;99.90
21895;DHT22;11112;51.270;7.224;2023-05-07T07:37:36;17.60;99.90
21895;DHT22;11112;51.270;7.224;2023-05-07T07:40:04;17.70;99.90
21895;DHT22;11112;51.270;7.224;2023-05-07T07:42:32;17.80;99.90
21895;DHT22;11112;51.270;7.224;2023-05-07T07:45:01;17.80;99.90
21895;DHT22;11112;51.270;7.224;2023-05-07T07:47:28;17.80;99.90
21895;DHT22;11112;51.270;7.224;2023-05-07T07:49:57;17.80;99.90
21895;DHT22;11112;51.270;7.224;2023-05-07T07:52:25;17.90;99.90
21895;DHT22;11112;51.270;7.224;2023-05-07T07:54:52;17.90;99.90
21895;DHT22;11112;51.270;7.224;2023-05-07T07:57:20;17.90;99.90
21895;DHT22;11112;51.270;7.224;2023-05-07T07:59:47;18.00;99.90
21895;DHT22;11112;51.270;7.224;2023-05-07T08:02:18;18.00;99.90
21895;DHT22;11112;51.270;7.224;2023-05-07T08:04:47;18.10;99.90
21895;DHT22;11112;51.270;7.224;2023-05-07T08:07:14;18.10;99.90
21895;DHT22;11112;51.270;7.224;2023-05-07T08:09:45;18.10;99.90
21895;DHT22;11112;51.270;7.224;2023-05-07T08:12:13;18.20;99.90
21895;DHT22;11112;51.270;7.224;2023-05-07T08:14:41;18.20;99.90
21895;DHT22;11112;51.270;7.224;2023-05-07T08:17:08;18.20;99.90
21895;DHT22;11112;51.270;7.224;2023-05-07T08:19:37;18.20;99.90
21895;DHT22;11112;51.270;7.224;2023-05-07T08:22:05;18.20;99.90
21895;DHT22;11112;51.270;7.224;2023-05-07T08:24:32;18.30;99.90
21895;DHT22;11112;51.270;7.224;2023-05-07T08:27:01;18.40;99.90
21895;DHT22;11112;51.270;7.224;2023-05-07T08:29:28;18.40;99.90
21895;DHT22;11112;51.270;7.224;2023-05-07T08:31:56;18.40;99.90
21895;DHT22;11112;51.270;7.224;2023-05-07T08:34:23;18.40;99.90
21895;DHT22;11112;51.270;7.224;2023-05-07T08:36:52;18.40;99.90
21895;DHT22;11112;51.270;7.224;2023-05-07T08:39:19;18.50;99.90
21895;DHT22;11112;51.270;7.224;2023-05-07T08:41:47;18.50;99.90
21895;DHT22;11112;51.270;7.224;2023-05-07T08:44:16;18.50;99.90
21895;DHT22;11112;51.270;7.224;2023-05-07T08:46:48;18.50;99.90
21895;DHT22;11112;51.270;7.224;2023-05-07T08:49:20;18.50;99.30
21895;DHT22;11112;51.270;7.224;2023-05-07T08:51:48;18.60;99.40
21895;DHT22;11112;51.270;7.224;2023-05-07T08:54:21;18.60;99.70
21895;DHT22;11112;51.270;7.224;2023-05-07T08:56:48;18.60;99.90
21895;DHT22;11112;51.270;7.224;2023-05-07T08:59:15;18.70;99.70
21895;DHT22;11112;51.270;7.224;2023-05-07T09:01:44;18.70;99.50
21895;DHT22;11112;51.270;7.224;2023-05-07T09:04:12;18.70;99.20
21895;DHT22;11112;51.270;7.224;2023-05-07T09:06:40;18.70;99.50
21895;DHT22;11112;51.270;7.224;2023-05-07T09:09:08;18.80;99.40
21895;DHT22;11112;51.270;7.224;2023-05-07T09:11:37;18.80;99.70
21895;DHT22;11112;51.270;7.224;2023-05-07T09:14:04;18.80;98.60
21895;DHT22;11112;51.270;7.224;2023-05-07T09:16:31;18.80;98.80
21895;DHT22;11112;51.270;7.224;2023-05-07T09:18:59;18.80;99.10
21895;DHT22;11112;51.270;7.224;2023-05-07T09:21:27;18.80;98.70
21895;DHT22;11112;51.270;7.224;2023-05-07T09:23:55;18.80;98.30
21895;DHT22;11112;51.270;7.224;2023-05-07T09:26:24;18.80;97.80
21895;DHT22;11112;51.270;7.224;2023-05-07T09:28:55;18.80;97.50
21895;DHT22;11112;51.270;7.224;2023-05-07T09:31:23;19.00;96.90
21895;DHT22;11112;51.270;7.224;2023-05-07T09:33:52;19.00;96.70
21895;DHT22;11112;51.270;7.224;2023-05-07T09:36:23;19.10;96.70
21895;DHT22;11112;51.270;7.224;2023-05-07T09:38:52;19.10;96.60
21895;DHT22;11112;51.270;7.224;2023-05-07T09:41:20;19.20;96.50
21895;DHT22;11112;51.270;7.224;2023-05-07T09:43:55;19.20;96.40
21895;DHT22;11112;51.270;7.224;2023-05-07T09:46:28;19.20;96.60
21895;DHT22;11112;51.270;7.224;2023-05-07T09:48:57;19.20;95.60
21895;DHT22;11112;51.270;7.224;2023-05-07T09:51:30;19.20;95.50
21895;DHT22;11112;51.270;7.224;2023-05-07T09:54:00;19.30;95.90
21895;DHT22;11112;51.270;7.224;2023-05-07T09:56:29;19.30;95.90
21895;DHT22;11112;51.270;7.224;2023-05-07T09:59:00;19.30;95.30
21895;DHT22;11112;51.270;7.224;2023-05-07T10:01:29;19.30;95.80
21895;DHT22;11112;51.270;7.224;2023-05-07T10:03:58;19.30;95.80
21895;DHT22;11112;51.270;7.224;2023-05-07T10:06:26;19.30;95.50
21895;DHT22;11112;51.270;7.224;2023-05-07T10:08:56;19.30;94.90
21895;DHT22;11112;51.270;7.224;2023-05-07T10:11:25;19.30;95.30
21895;DHT22;11112;51.270;7.224;2023-05-07T10:13:54;19.20;95.30
21895;DHT22;11112;51.270;7.224;2023-05-07T10:16:23;19.20;95.20
21895;DHT22;11112;51.270;7.224;2023-05-07T10:18:51;19.20;95.50
21895;DHT22;11112;51.270;7.224;2023-05-07T10:21:23;19.20;95.20
21895;DHT22;11112;51.270;7.224;2023-05-07T10:23:56;19.30;94.80
21895;DHT22;11112;51.270;7.224;2023-05-07T10:26:28;19.30;95.60
21895;DHT22;11112;51.270;7.224;2023-05-07T10:29:01;19.30;96.30
21895;DHT22;11112;51.270;7.224;2023-05-07T10:31:50;19.30;97.00
21895;DHT22;11112;51.270;7.224;2023-05-07T10:34:25;19.30;97.10
21895;DHT22;11112;51.270;7.224;2023-05-07T10:36:55;19.30;97.40
21895;DHT22;11112;51.270;7.224;2023-05-07T10:39:24;19.30;97.60
21895;DHT22;11112;51.270;7.224;2023-05-07T10:41:52;19.30;97.40
21895;DHT22;11112;51.270;7.224;2023-05-07T10:44:26;19.30;97.30
21895;DHT22;11112;51.270;7.224;2023-05-07T10:47:08;19.30;97.30
21895;DHT22;11112;51.270;7.224;2023-05-07T10:49:36;19.30;97.40
21895;DHT22;11112;51.270;7.224;2023-05-07T10:52:15;19.20;97.30
21895;DHT22;11112;51.270;7.224;2023-05-07T10:54:44;19.20;97.70
21895;DHT22;11112;51.270;7.224;2023-05-07T10:57:32;19.20;98.10
21895;DHT22;11112;51.270;7.224;2023-05-07T11:00:01;19.20;97.50
21895;DHT22;11112;51.270;7.224;2023-05-07T11:05:35;19.20;98.10
21895;DHT22;11112;51.270;7.224;2023-05-07T11:08:04;19.20;99.50
21895;DHT22;11112;51.270;7.224;2023-05-07T11:10:51;19.10;99.90
21895;DHT22;11112;51.270;7.224;2023-05-07T11:13:41;19.10;99.90
21895;DHT22;11112;51.270;7.224;2023-05-07T11:16:17;19.10;99.90
21895;DHT22;11112;51.270;7.224;2023-05-07T11:18:51;19.10;99.90
21895;DHT22;11112;51.270;7.224;2023-05-07T11:21:35;19.10;99.90
21895;DHT22;11112;51.270;7.224;2023-05-07T11:24:05;19.00;99.90
21895;DHT22;11112;51.270;7.224;2023-05-07T11:26:43;19.00;99.90
21895;DHT22;11112;51.270;7.224;2023-05-07T11:29:15;19.00;99.90
21895;DHT22;11112;51.270;7.224;2023-05-07T11:31:43;19.00;99.90
21895;DHT22;11112;51.270;7.224;2023-05-07T11:34:21;19.00;99.90
21895;DHT22;11112;51.270;7.224;2023-05-07T11:36:50;19.00;99.90
21895;DHT22;11112;51.270;7.224;2023-05-07T11:39:27;18.90;99.90
21895;DHT22;11112;51.270;7.224;2023-05-07T11:42:04;18.90;99.90
21895;DHT22;11112;51.270;7.224;2023-05-07T11:44:42;18.90;99.90
21895;DHT22;11112;51.270;7.224;2023-05-07T11:47:16;18.90;99.90
21895;DHT22;11112;51.270;7.224;2023-05-07T11:49:48;18.90;99.90
21895;DHT22;11112;51.270;7.224;2023-05-07T11:52:16;18.90;99.90
21895;DHT22;11112;51.270;7.224;2023-05-07T11:54:49;18.90;99.90
21895;DHT22;11112;51.270;7.224;2023-05-07T11:57:16;18.90;99.90
21895;DHT22;11112;51.270;7.224;2023-05-07T11:59:43;18.90;99.90
21895;DHT22;11112;51.270;7.224;2023-05-07T12:02:10;18.90;99.90
21895;DHT22;11112;51.270;7.224;2023-05-07T12:04:40;18.80;99.90
21895;DHT22;11112;51.270;7.224;2023-05-07T12:07:13;18.80;99.90
21895;DHT22;11112;51.270;7.224;2023-05-07T12:09:40;18.80;99.90
21895;DHT22;11112;51.270;7.224;2023-05-07T12:12:08;18.80;99.90
21895;DHT22;11112;51.270;7.224;2023-05-07T12:14:38;18.90;99.90
21895;DHT22;11112;51.270;7.224;2023-05-07T12:17:09;18.90;99.90
21895;DHT22;11112;51.270;7.224;2023-05-07T12:19:40;18.80;99.90
21895;DHT22;11112;51.270;7.224;2023-05-07T12:22:13;18.80;99.90
21895;DHT22;11112;51.270;7.224;2023-05-07T12:24:46;18.80;99.90
21895;DHT22;11112;51.270;7.224;2023-05-07T12:27:16;18.80;99.90
21895;DHT22;11112;51.270;7.224;2023-05-07T12:29:44;18.90;99.90
21895;DHT22;11112;51.270;7.224;2023-05-07T12:32:13;18.90;99.90
21895;DHT22;11112;51.270;7.224;2023-05-07T12:34:42;18.90;99.90
21895;DHT22;11112;51.270;7.224;2023-05-07T12:37:09;18.90;99.90
21895;DHT22;11112;51.270;7.224;2023-05-07T12:39:44;18.90;99.90
21895;DHT22;11112;51.270;7.224;2023-05-07T12:42:16;18.90;99.90
21895;DHT22;11112;51.270;7.224;2023-05-07T12:44:46;18.80;99.90
21895;DHT22;11112;51.270;7.224;2023-05-07T12:47:15;18.80;99.90
21895;DHT22;11112;51.270;7.224;2023-05-07T12:49:45;18.80;99.90
21895;DHT22;11112;51.270;7.224;2023-05-07T12:52:14;18.70;99.90
21895;DHT22;11112;51.270;7.224;2023-05-07T12:54:44;18.70;99.90
21895;DHT22;11112;51.270;7.224;2023-05-07T12:57:11;18.70;99.90
21895;DHT22;11112;51.270;7.224;2023-05-07T12:59:42;18.70;99.90
21895;DHT22;11112;51.270;7.224;2023-05-07T13:02:09;18.70;99.90
21895;DHT22;11112;51.270;7.224;2023-05-07T13:04:37;18.70;99.90
21895;DHT22;11112;51.270;7.224;2023-05-07T13:07:04;18.70;99.90
21895;DHT22;11112;51.270;7.224;2023-05-07T13:09:31;18.60;99.90
21895;DHT22;11112;51.270;7.224;2023-05-07T13:12:00;18.60;99.90
21895;DHT22;11112;51.270;7.224;2023-05-07T13:14:27;18.60;99.90
21895;DHT22;11112;51.270;7.224;2023-05-07T13:16:55;18.50;99.90
21895;DHT22;11112;51.270;7.224;2023-05-07T13:19:23;18.60;99.90
21895;DHT22;11112;51.270;7.224;2023-05-07T13:21:52;18.50;99.90
21895;DHT22;11112;51.270;7.224;2023-05-07T13:24:19;18.50;99.60
21895;DHT22;11112;51.270;7.224;2023-05-07T13:26:47;18.50;99.90
21895;DHT22;11112;51.270;7.224;2023-05-07T13:29:16;18.50;99.50
21895;DHT22;11112;51.270;7.224;2023-05-07T13:31:43;18.50;99.70
21895;DHT22;11112;51.270;7.224;2023-05-07T13:34:10;18.50;99.80
21895;DHT22;11112;51.270;7.224;2023-05-07T13:36:39;18.50;99.80
21895;DHT22;11112;51.270;7.224;2023-05-07T13:39:07;18.50;99.50
21895;DHT22;11112;51.270;7.224;2023-05-07T13:41:35;18.60;99.60
21895;DHT22;11112;51.270;7.224;2023-05-07T13:44:03;18.60;99.50
21895;DHT22;11112;51.270;7.224;2023-05-07T13:46:32;18.60;99.10
21895;DHT22;11112;51.270;7.224;2023-05-07T13:48:59;18.60;99.20
21895;DHT22;11112;51.270;7.224;2023-05-07T13:51:27;18.60;99.60
21895;DHT22;11112;51.270;7.224;2023-05-07T13:53:54;18.60;99.70
21895;DHT22;11112;51.270;7.224;2023-05-07T13:56:21;18.60;99.80
21895;DHT22;11112;51.270;7.224;2023-05-07T13:58:48;18.60;99.90
21895;DHT22;11112;51.270;7.224;2023-05-07T14:01:15;18.60;99.90
21895;DHT22;11112;51.270;7.224;2023-05-07T14:03:44;18.70;99.90
21895;DHT22;11112;51.270;7.224;2023-05-07T14:06:11;18.60;99.90
21895;DHT22;11112;51.270;7.224;2023-05-07T14:08:38;18.70;99.90
21895;DHT22;11112;51.270;7.224;2023-05-07T14:11:08;18.60;99.90
21895;DHT22;11112;51.270;7.224;2023-05-07T14:13:37;18.60;99.90
21895;DHT22;11112;51.270;7.224;2023-05-07T14:16:04;18.60;99.90
21895;DHT22;11112;51.270;7.224;2023-05-07T14:18:32;18.60;99.90
21895;DHT22;11112;51.270;7.224;2023-05-07T14:21:01;18.60;99.90
21895;DHT22;11112;51.270;7.224;2023-05-07T14:23:28;18.50;99.90
21895;DHT22;11112;51.270;7.224;2023-05-07T14:25:58;18.50;99.90
21895;DHT22;11112;51.270;7.224;2023-05-07T14:28:28;18.60;99.90
21895;DHT22;11112;51.270;7.224;2023-05-07T14:30:55;18.60;99.90
21895;DHT22;11112;51.270;7.224;2023-05-07T14:33:22;18.50;99.90
21895;DHT22;11112;51.270;7.224;2023-05-07T14:35:50;18.50;99.90
21895;DHT22;11112;51.270;7.224;2023-05-07T14:38:19;18.50;99.90
21895;DHT22;11112;51.270;7.224;2023-05-07T14:40:47;18.50;99.90
21895;DHT22;11112;51.270;7.224;2023-05-07T14:43:15;18.50;99.90
21895;DHT22;11112;51.270;7.224;2023-05-07T14:45:43;18.50;99.90
21895;DHT22;11112;51.270;7.224;2023-05-07T14:48:13;18.50;99.90
21895;DHT22;11112;51.270;7.224;2023-05-07T14:50:41;18.50;99.90
21895;DHT22;11112;51.270;7.224;2023-05-07T14:53:08;18.50;99.90
21895;DHT22;11112;51.270;7.224;2023-05-07T14:55:37;18.50;99.90
21895;DHT22;11112;51.270;7.224;2023-05-07T14:58:04;18.50;99.90
21895;DHT22;11112;51.270;7.224;2023-05-07T15:00:32;18.50;99.90
21895;DHT22;11112;51.270;7.224;2023-05-07T15:03:05;18.50;99.90
21895;DHT22;11112;51.270;7.224;2023-05-07T15:05:35;18.60;99.90
21895;DHT22;11112;51.270;7.224;2023-05-07T15:08:07;18.60;99.90
21895;DHT22;11112;51.270;7.224;2023-05-07T15:10:37;18.60;99.90
21895;DHT22;11112;51.270;7.224;2023-05-07T15:13:07;18.50;99.90
21895;DHT22;11112;51.270;7.224;2023-05-07T15:15:34;18.50;99.90
21895;DHT22;11112;51.270;7.224;2023-05-07T15:18:02;18.50;99.90
21895;DHT22;11112;51.270;7.224;2023-05-07T15:20:30;18.50;99.90
21895;DHT22;11112;51.270;7.224;2023-05-07T15:22:59;18.50;99.90
21895;DHT22;11112;51.270;7.224;2023-05-07T15:25:30;18.50;99.90
21895;DHT22;11112;51.270;7.224;2023-05-07T15:28:00;18.50;99.90
21895;DHT22;11112;51.270;7.224;2023-05-07T15:30:28;18.50;99.90
21895;DHT22;11112;51.270;7.224;2023-05-07T15:32:55;18.50;99.90
21895;DHT22;11112;51.270;7.224;2023-05-07T15:35:25;18.50;99.90
21895;DHT22;11112;51.270;7.224;2023-05-07T15:37:52;18.50;99.90
21895;DHT22;11112;51.270;7.224;2023-05-07T15:40:21;18.50;99.90
21895;DHT22;11112;51.270;7.224;2023-05-07T15:42:48;18.50;99.90
21895;DHT22;11112;51.270;7.224;2023-05-07T15:45:17;18.50;99.90